sensor_id;sensor_type;location;lat;lon;timestamp;P1;durP1;ratioP1;P2;durP2;ratioP2
84763;SDS011;74992;51.072;6.088;2024-02-21T00:00:38;5.13;;;2.40;;
84763;SDS011;74992;51.072;6.088;2024-02-21T00:03:40;11.48;;;3.35;;
84763;SDS011;74992;51.072;6.088;2024-02-21T00:06:42;6.95;;;3.92;;
84763;SDS011;74992;51.072;6.088;2024-02-21T00:09:43;8.43;;;4.10;;
84763;SDS011;74992;51.072;6.088;2024-02-21T00:12:45;8.93;;;2.92;;
84763;SDS011;74992;51.072;6.088;2024-02-21T00:15:46;5.70;;;2.80;;
84763;SDS011;74992;51.072;6.088;2024-02-21T00:18:48;9.07;;;3.58;;
84763;SDS011;74992;51.072;6.088;2024-02-21T00:21:49;5.85;;;3.63;;
84763;SDS011;74992;51.072;6.088;2024-02-21T00:24:51;9.98;;;5.10;;
84763;SDS011;74992;51.072;6.088;2024-02-21T00:27:53;7.95;;;4.18;;
84763;SDS011;74992;51.072;6.088;2024-02-21T00:30:54;6.40;;;3.20;;
84763;SDS011;74992;51.072;6.088;2024-02-21T00:33:56;7.93;;;4.38;;
84763;SDS011;74992;51.072;6.088;2024-02-21T00:36:58;7.28;;;2.97;;
84763;SDS011;74992;51.072;6.088;2024-02-21T00:40:00;6.07;;;3.42;;
84763;SDS011;74992;51.072;6.088;2024-02-21T00:43:02;7.40;;;4.45;;
84763;SDS011;74992;51.072;6.088;2024-02-21T00:46:05;5.38;;;3.17;;
84763;SDS011;74992;51.072;6.088;2024-02-21T00:49:07;10.90;;;3.97;;
84763;SDS011;74992;51.072;6.088;2024-02-21T00:52:09;9.50;;;4.72;;
84763;SDS011;74992;51.072;6.088;2024-02-21T00:55:10;7.03;;;3.60;;
84763;SDS011;74992;51.072;6.088;2024-02-21T00:58:12;6.28;;;2.95;;
84763;SDS011;74992;51.072;6.088;2024-02-21T01:01:20;7.15;;;3.63;;
84763;SDS011;74992;51.072;6.088;2024-02-21T01:04:23;8.85;;;3.13;;
84763;SDS011;74992;51.072;6.088;2024-02-21T01:07:25;7.18;;;3.72;;
84763;SDS011;74992;51.072;6.088;2024-02-21T01:10:27;15.60;;;3.58;;
84763;SDS011;74992;51.072;6.088;2024-02-21T01:13:29;6.65;;;3.10;;
84763;SDS011;74992;51.072;6.088;2024-02-21T01:16:31;5.43;;;2.92;;
84763;SDS011;74992;51.072;6.088;2024-02-21T01:19:32;6.63;;;3.65;;
84763;SDS011;74992;51.072;6.088;2024-02-21T01:22:34;7.22;;;3.15;;
84763;SDS011;74992;51.072;6.088;2024-02-21T01:25:35;6.63;;;3.10;;
84763;SDS011;74992;51.072;6.088;2024-02-21T01:28:38;6.30;;;2.42;;
84763;SDS011;74992;51.072;6.088;2024-02-21T01:31:41;10.38;;;3.95;;
84763;SDS011;74992;51.072;6.088;2024-02-21T01:37:44;5.90;;;2.85;;
84763;SDS011;74992;51.072;6.088;2024-02-21T01:40:46;5.30;;;3.58;;
84763;SDS011;74992;51.072;6.088;2024-02-21T01:43:47;6.25;;;3.17;;
84763;SDS011;74992;51.072;6.088;2024-02-21T01:46:49;5.65;;;2.95;;
84763;SDS011;74992;51.072;6.088;2024-02-21T01:49:51;7.90;;;2.70;;
84763;SDS011;74992;51.072;6.088;2024-02-21T01:52:53;9.63;;;3.05;;
84763;SDS011;74992;51.072;6.088;2024-02-21T01:55:54;6.25;;;3.85;;
84763;SDS011;74992;51.072;6.088;2024-02-21T01:58:56;5.63;;;2.35;;
84763;SDS011;74992;51.072;6.088;2024-02-21T02:01:58;8.90;;;3.33;;
84763;SDS011;74992;51.072;6.088;2024-02-21T02:04:59;12.82;;;3.53;;
84763;SDS011;74992;51.072;6.088;2024-02-21T02:08:02;6.07;;;2.78;;
84763;SDS011;74992;51.072;6.088;2024-02-21T02:11:05;7.05;;;2.83;;
84763;SDS011;74992;51.072;6.088;2024-02-21T02:14:07;8.35;;;4.75;;
84763;SDS011;74992;51.072;6.088;2024-02-21T02:17:08;8.38;;;2.90;;
84763;SDS011;74992;51.072;6.088;2024-02-21T02:20:10;6.60;;;3.40;;
84763;SDS011;74992;51.072;6.088;2024-02-21T02:26:39;7.68;;;2.83;;
84763;SDS011;74992;51.072;6.088;2024-02-21T02:29:41;9.88;;;3.67;;
84763;SDS011;74992;51.072;6.088;2024-02-21T02:32:44;9.13;;;3.65;;
84763;SDS011;74992;51.072;6.088;2024-02-21T02:35:47;6.35;;;4.53;;
84763;SDS011;74992;51.072;6.088;2024-02-21T02:38:48;6.13;;;2.90;;
84763;SDS011;74992;51.072;6.088;2024-02-21T02:41:50;6.10;;;2.92;;
84763;SDS011;74992;51.072;6.088;2024-02-21T02:44:51;6.30;;;3.22;;
84763;SDS011;74992;51.072;6.088;2024-02-21T02:47:53;6.75;;;3.28;;
84763;SDS011;74992;51.072;6.088;2024-02-21T02:50:56;6.45;;;2.30;;
84763;SDS011;74992;51.072;6.088;2024-02-21T02:53:58;5.68;;;3.10;;
84763;SDS011;74992;51.072;6.088;2024-02-21T02:56:59;6.80;;;3.63;;
84763;SDS011;74992;51.072;6.088;2024-02-21T03:00:01;7.03;;;3.72;;
84763;SDS011;74992;51.072;6.088;2024-02-21T03:03:02;10.40;;;3.28;;
84763;SDS011;74992;51.072;6.088;2024-02-21T03:06:04;9.63;;;3.47;;
84763;SDS011;74992;51.072;6.088;2024-02-21T03:09:06;6.03;;;3.22;;
84763;SDS011;74992;51.072;6.088;2024-02-21T03:12:09;5.47;;;3.03;;
84763;SDS011;74992;51.072;6.088;2024-02-21T03:15:10;4.75;;;2.40;;
84763;SDS011;74992;51.072;6.088;2024-02-21T03:18:13;4.28;;;2.22;;
84763;SDS011;74992;51.072;6.088;2024-02-21T03:21:15;6.25;;;2.97;;
84763;SDS011;74992;51.072;6.088;2024-02-21T03:24:16;6.28;;;2.72;;
84763;SDS011;74992;51.072;6.088;2024-02-21T03:27:18;6.40;;;3.38;;
84763;SDS011;74992;51.072;6.088;2024-02-21T03:30:19;8.35;;;1.95;;
84763;SDS011;74992;51.072;6.088;2024-02-21T03:33:21;9.07;;;4.63;;
84763;SDS011;74992;51.072;6.088;2024-02-21T03:36:23;6.40;;;2.20;;
84763;SDS011;74992;51.072;6.088;2024-02-21T03:39:24;4.38;;;2.08;;
84763;SDS011;74992;51.072;6.088;2024-02-21T03:42:26;5.43;;;2.63;;
84763;SDS011;74992;51.072;6.088;2024-02-21T03:45:29;7.97;;;3.55;;
84763;SDS011;74992;51.072;6.088;2024-02-21T03:48:31;5.35;;;2.28;;
84763;SDS011;74992;51.072;6.088;2024-02-21T03:51:32;7.32;;;3.13;;
84763;SDS011;74992;51.072;6.088;2024-02-21T03:54:34;7.65;;;2.88;;
84763;SDS011;74992;51.072;6.088;2024-02-21T03:57:35;6.63;;;2.72;;
84763;SDS011;74992;51.072;6.088;2024-02-21T04:00:37;16.60;;;2.75;;
84763;SDS011;74992;51.072;6.088;2024-02-21T04:03:39;7.03;;;2.97;;
84763;SDS011;74992;51.072;6.088;2024-02-21T04:06:47;8.68;;;2.80;;
84763;SDS011;74992;51.072;6.088;2024-02-21T04:09:49;4.32;;;2.45;;
84763;SDS011;74992;51.072;6.088;2024-02-21T04:12:51;5.78;;;2.40;;
84763;SDS011;74992;51.072;6.088;2024-02-21T04:15:52;6.57;;;2.30;;
84763;SDS011;74992;51.072;6.088;2024-02-21T04:18:53;7.15;;;2.85;;
84763;SDS011;74992;51.072;6.088;2024-02-21T04:21:55;4.32;;;2.35;;
84763;SDS011;74992;51.072;6.088;2024-02-21T04:24:59;4.35;;;2.47;;
84763;SDS011;74992;51.072;6.088;2024-02-21T04:28:05;6.18;;;3.25;;
84763;SDS011;74992;51.072;6.088;2024-02-21T04:31:06;4.85;;;2.97;;
84763;SDS011;74992;51.072;6.088;2024-02-21T04:34:08;4.75;;;2.60;;
84763;SDS011;74992;51.072;6.088;2024-02-21T04:37:10;4.20;;;2.50;;
84763;SDS011;74992;51.072;6.088;2024-02-21T04:40:12;4.82;;;2.25;;
84763;SDS011;74992;51.072;6.088;2024-02-21T04:43:14;7.13;;;4.65;;
84763;SDS011;74992;51.072;6.088;2024-02-21T04:46:15;8.50;;;4.00;;
84763;SDS011;74992;51.072;6.088;2024-02-21T04:49:17;7.35;;;3.33;;
84763;SDS011;74992;51.072;6.088;2024-02-21T04:52:18;4.97;;;3.33;;
84763;SDS011;74992;51.072;6.088;2024-02-21T04:55:20;7.22;;;2.65;;
84763;SDS011;74992;51.072;6.088;2024-02-21T04:58:21;6.50;;;3.42;;
84763;SDS011;74992;51.072;6.088;2024-02-21T05:01:23;6.53;;;3.38;;
84763;SDS011;74992;51.072;6.088;2024-02-21T05:04:24;9.52;;;3.83;;
84763;SDS011;74992;51.072;6.088;2024-02-21T05:07:26;5.30;;;2.60;;
84763;SDS011;74992;51.072;6.088;2024-02-21T05:10:27;4.97;;;3.53;;
84763;SDS011;74992;51.072;6.088;2024-02-21T05:13:30;4.70;;;2.92;;
84763;SDS011;74992;51.072;6.088;2024-02-21T05:16:32;5.45;;;2.50;;
84763;SDS011;74992;51.072;6.088;2024-02-21T05:19:36;6.50;;;4.00;;
84763;SDS011;74992;51.072;6.088;2024-02-21T05:22:38;6.10;;;2.85;;
84763;SDS011;74992;51.072;6.088;2024-02-21T05:25:39;5.55;;;2.60;;
84763;SDS011;74992;51.072;6.088;2024-02-21T05:28:41;4.53;;;2.33;;
84763;SDS011;74992;51.072;6.088;2024-02-21T05:34:54;4.80;;;2.47;;
84763;SDS011;74992;51.072;6.088;2024-02-21T05:37:59;5.63;;;2.67;;
84763;SDS011;74992;51.072;6.088;2024-02-21T05:44:02;6.15;;;2.97;;
84763;SDS011;74992;51.072;6.088;2024-02-21T05:47:04;5.65;;;2.65;;
84763;SDS011;74992;51.072;6.088;2024-02-21T05:50:10;4.68;;;2.50;;
84763;SDS011;74992;51.072;6.088;2024-02-21T05:53:11;4.95;;;3.22;;
84763;SDS011;74992;51.072;6.088;2024-02-21T05:56:13;4.85;;;2.78;;
84763;SDS011;74992;51.072;6.088;2024-02-21T05:59:15;6.22;;;3.22;;
84763;SDS011;74992;51.072;6.088;2024-02-21T06:02:18;5.70;;;2.50;;
84763;SDS011;74992;51.072;6.088;2024-02-21T06:08:21;10.27;;;2.53;;
84763;SDS011;74992;51.072;6.088;2024-02-21T06:11:23;2.83;;;1.60;;
84763;SDS011;74992;51.072;6.088;2024-02-21T06:14:26;4.35;;;2.25;;
84763;SDS011;74992;51.072;6.088;2024-02-21T06:17:28;4.28;;;1.80;;
84763;SDS011;74992;51.072;6.088;2024-02-21T06:20:29;7.47;;;2.60;;
84763;SDS011;74992;51.072;6.088;2024-02-21T06:23:31;4.97;;;2.30;;
84763;SDS011;74992;51.072;6.088;2024-02-21T06:26:32;4.07;;;1.50;;
84763;SDS011;74992;51.072;6.088;2024-02-21T06:29:34;4.15;;;1.90;;
84763;SDS011;74992;51.072;6.088;2024-02-21T06:32:35;6.47;;;2.05;;
84763;SDS011;74992;51.072;6.088;2024-02-21T06:35:38;5.90;;;1.77;;
84763;SDS011;74992;51.072;6.088;2024-02-21T06:38:41;5.55;;;2.33;;
84763;SDS011;74992;51.072;6.088;2024-02-21T06:41:42;4.35;;;1.85;;
84763;SDS011;74992;51.072;6.088;2024-02-21T06:44:44;4.90;;;2.25;;
84763;SDS011;74992;51.072;6.088;2024-02-21T06:47:47;7.65;;;3.17;;
84763;SDS011;74992;51.072;6.088;2024-02-21T06:50:48;6.07;;;2.10;;
84763;SDS011;74992;51.072;6.088;2024-02-21T06:53:50;4.25;;;2.42;;
84763;SDS011;74992;51.072;6.088;2024-02-21T06:56:51;2.65;;;1.65;;
84763;SDS011;74992;51.072;6.088;2024-02-21T06:59:53;4.63;;;2.13;;
84763;SDS011;74992;51.072;6.088;2024-02-21T07:02:54;4.07;;;2.47;;
84763;SDS011;74992;51.072;6.088;2024-02-21T07:05:56;5.78;;;3.22;;
84763;SDS011;74992;51.072;6.088;2024-02-21T07:08:57;4.55;;;1.92;;
84763;SDS011;74992;51.072;6.088;2024-02-21T07:11:59;7.25;;;2.60;;
84763;SDS011;74992;51.072;6.088;2024-02-21T07:15:00;7.20;;;1.63;;
84763;SDS011;74992;51.072;6.088;2024-02-21T07:18:02;7.88;;;3.30;;
84763;SDS011;74992;51.072;6.088;2024-02-21T07:21:03;7.30;;;3.00;;
84763;SDS011;74992;51.072;6.088;2024-02-21T07:24:05;5.55;;;2.85;;
84763;SDS011;74992;51.072;6.088;2024-02-21T07:27:07;5.05;;;2.70;;
84763;SDS011;74992;51.072;6.088;2024-02-21T07:30:09;4.07;;;2.17;;
84763;SDS011;74992;51.072;6.088;2024-02-21T07:33:11;3.65;;;1.52;;
84763;SDS011;74992;51.072;6.088;2024-02-21T07:36:15;3.53;;;2.03;;
84763;SDS011;74992;51.072;6.088;2024-02-21T07:39:17;4.65;;;1.98;;
84763;SDS011;74992;51.072;6.088;2024-02-21T07:42:18;8.07;;;3.25;;
84763;SDS011;74992;51.072;6.088;2024-02-21T07:45:20;3.83;;;2.03;;
84763;SDS011;74992;51.072;6.088;2024-02-21T07:48:24;4.70;;;2.72;;
84763;SDS011;74992;51.072;6.088;2024-02-21T07:51:29;4.20;;;2.22;;
84763;SDS011;74992;51.072;6.088;2024-02-21T07:54:30;6.35;;;3.17;;
84763;SDS011;74992;51.072;6.088;2024-02-21T07:57:32;6.10;;;1.60;;
84763;SDS011;74992;51.072;6.088;2024-02-21T08:00:33;7.88;;;2.67;;
84763;SDS011;74992;51.072;6.088;2024-02-21T08:03:35;4.07;;;2.00;;
84763;SDS011;74992;51.072;6.088;2024-02-21T08:06:36;16.02;;;3.10;;
84763;SDS011;74992;51.072;6.088;2024-02-21T08:09:39;3.25;;;1.75;;
84763;SDS011;74992;51.072;6.088;2024-02-21T08:12:41;4.80;;;2.47;;
84763;SDS011;74992;51.072;6.088;2024-02-21T08:15:43;2.90;;;1.88;;
84763;SDS011;74992;51.072;6.088;2024-02-21T08:18:44;4.68;;;2.22;;
84763;SDS011;74992;51.072;6.088;2024-02-21T08:21:46;3.28;;;1.55;;
84763;SDS011;74992;51.072;6.088;2024-02-21T08:24:48;3.90;;;1.73;;
84763;SDS011;74992;51.072;6.088;2024-02-21T08:27:49;4.70;;;2.92;;
84763;SDS011;74992;51.072;6.088;2024-02-21T08:30:51;8.77;;;2.20;;
84763;SDS011;74992;51.072;6.088;2024-02-21T08:33:53;5.97;;;2.17;;
84763;SDS011;74992;51.072;6.088;2024-02-21T08:36:56;3.28;;;1.67;;
84763;SDS011;74992;51.072;6.088;2024-02-21T08:39:57;4.55;;;1.73;;
84763;SDS011;74992;51.072;6.088;2024-02-21T08:43:04;6.93;;;2.38;;
84763;SDS011;74992;51.072;6.088;2024-02-21T08:46:06;5.78;;;2.05;;
84763;SDS011;74992;51.072;6.088;2024-02-21T08:49:07;9.40;;;2.28;;
84763;SDS011;74992;51.072;6.088;2024-02-21T08:52:09;3.60;;;1.52;;
84763;SDS011;74992;51.072;6.088;2024-02-21T08:55:10;3.20;;;1.70;;
84763;SDS011;74992;51.072;6.088;2024-02-21T08:58:12;3.15;;;1.88;;
84763;SDS011;74992;51.072;6.088;2024-02-21T09:01:14;5.88;;;3.05;;
84763;SDS011;74992;51.072;6.088;2024-02-21T09:04:16;4.00;;;1.95;;
84763;SDS011;74992;51.072;6.088;2024-02-21T09:07:17;2.78;;;1.40;;
84763;SDS011;74992;51.072;6.088;2024-02-21T09:10:19;5.10;;;2.30;;
84763;SDS011;74992;51.072;6.088;2024-02-21T09:13:21;3.75;;;2.13;;
84763;SDS011;74992;51.072;6.088;2024-02-21T09:16:25;2.42;;;1.27;;
84763;SDS011;74992;51.072;6.088;2024-02-21T09:19:26;2.17;;;1.38;;
84763;SDS011;74992;51.072;6.088;2024-02-21T09:22:28;4.80;;;2.15;;
84763;SDS011;74992;51.072;6.088;2024-02-21T09:25:31;8.10;;;2.65;;
84763;SDS011;74992;51.072;6.088;2024-02-21T09:28:34;2.88;;;1.45;;
84763;SDS011;74992;51.072;6.088;2024-02-21T09:31:35;3.05;;;1.73;;
84763;SDS011;74992;51.072;6.088;2024-02-21T09:34:38;9.30;;;1.58;;
84763;SDS011;74992;51.072;6.088;2024-02-21T09:37:40;5.32;;;1.58;;
84763;SDS011;74992;51.072;6.088;2024-02-21T09:40:42;3.65;;;2.50;;
84763;SDS011;74992;51.072;6.088;2024-02-21T09:43:44;2.63;;;1.67;;
84763;SDS011;74992;51.072;6.088;2024-02-21T09:46:55;4.57;;;3.15;;
84763;SDS011;74992;51.072;6.088;2024-02-21T09:50:03;2.80;;;1.50;;
84763;SDS011;74992;51.072;6.088;2024-02-21T09:53:06;4.13;;;1.85;;
84763;SDS011;74992;51.072;6.088;2024-02-21T09:56:09;4.88;;;1.70;;
84763;SDS011;74992;51.072;6.088;2024-02-21T09:59:10;4.75;;;2.58;;
84763;SDS011;74992;51.072;6.088;2024-02-21T10:02:12;5.05;;;1.35;;
84763;SDS011;74992;51.072;6.088;2024-02-21T10:05:14;8.18;;;2.08;;
84763;SDS011;74992;51.072;6.088;2024-02-21T10:08:15;3.50;;;1.77;;
84763;SDS011;74992;51.072;6.088;2024-02-21T10:11:24;4.68;;;1.83;;
84763;SDS011;74992;51.072;6.088;2024-02-21T10:14:28;3.15;;;1.65;;
84763;SDS011;74992;51.072;6.088;2024-02-21T10:17:29;3.88;;;1.75;;
84763;SDS011;74992;51.072;6.088;2024-02-21T10:20:31;3.80;;;1.88;;
84763;SDS011;74992;51.072;6.088;2024-02-21T10:29:49;4.05;;;1.70;;
84763;SDS011;74992;51.072;6.088;2024-02-21T10:32:52;2.22;;;1.70;;
84763;SDS011;74992;51.072;6.088;2024-02-21T10:35:55;4.53;;;1.63;;
84763;SDS011;74992;51.072;6.088;2024-02-21T10:39:07;4.47;;;2.17;;
84763;SDS011;74992;51.072;6.088;2024-02-21T10:42:10;3.90;;;1.52;;
84763;SDS011;74992;51.072;6.088;2024-02-21T10:45:13;12.43;;;1.90;;
84763;SDS011;74992;51.072;6.088;2024-02-21T10:48:15;4.38;;;1.60;;
84763;SDS011;74992;51.072;6.088;2024-02-21T10:51:17;4.22;;;2.50;;
84763;SDS011;74992;51.072;6.088;2024-02-21T10:54:39;7.20;;;1.63;;
84763;SDS011;74992;51.072;6.088;2024-02-21T10:57:46;7.28;;;1.90;;
84763;SDS011;74992;51.072;6.088;2024-02-21T11:00:49;3.45;;;1.83;;
84763;SDS011;74992;51.072;6.088;2024-02-21T11:03:52;7.10;;;3.35;;
84763;SDS011;74992;51.072;6.088;2024-02-21T11:06:55;3.90;;;1.73;;
84763;SDS011;74992;51.072;6.088;2024-02-21T11:09:58;4.60;;;2.42;;
84763;SDS011;74992;51.072;6.088;2024-02-21T11:13:09;4.70;;;2.72;;
84763;SDS011;74992;51.072;6.088;2024-02-21T11:16:21;4.22;;;1.85;;
84763;SDS011;74992;51.072;6.088;2024-02-21T11:19:28;4.78;;;1.60;;
84763;SDS011;74992;51.072;6.088;2024-02-21T11:22:40;3.40;;;1.60;;
84763;SDS011;74992;51.072;6.088;2024-02-21T11:25:43;4.20;;;2.22;;
84763;SDS011;74992;51.072;6.088;2024-02-21T11:28:55;2.85;;;1.60;;
84763;SDS011;74992;51.072;6.088;2024-02-21T11:31:57;4.53;;;2.10;;
84763;SDS011;74992;51.072;6.088;2024-02-21T11:35:02;4.40;;;2.17;;
84763;SDS011;74992;51.072;6.088;2024-02-21T11:38:11;3.50;;;2.05;;
84763;SDS011;74992;51.072;6.088;2024-02-21T11:41:15;3.55;;;1.55;;
84763;SDS011;74992;51.072;6.088;2024-02-21T11:44:17;3.42;;;1.92;;
84763;SDS011;74992;51.072;6.088;2024-02-21T11:47:18;3.72;;;1.95;;
84763;SDS011;74992;51.072;6.088;2024-02-21T11:50:22;5.57;;;2.28;;
84763;SDS011;74992;51.072;6.088;2024-02-21T11:53:24;3.42;;;1.40;;
84763;SDS011;74992;51.072;6.088;2024-02-21T11:56:30;3.15;;;1.88;;
84763;SDS011;74992;51.072;6.088;2024-02-21T11:59:32;3.90;;;1.75;;
84763;SDS011;74992;51.072;6.088;2024-02-21T12:02:34;3.80;;;1.63;;
84763;SDS011;74992;51.072;6.088;2024-02-21T12:05:36;4.82;;;2.70;;
84763;SDS011;74992;51.072;6.088;2024-02-21T12:08:41;3.58;;;1.83;;
84763;SDS011;74992;51.072;6.088;2024-02-21T12:11:44;7.80;;;2.17;;
84763;SDS011;74992;51.072;6.088;2024-02-21T12:14:53;4.95;;;2.40;;
84763;SDS011;74992;51.072;6.088;2024-02-21T12:17:56;3.13;;;1.70;;
84763;SDS011;74992;51.072;6.088;2024-02-21T12:24:10;3.50;;;1.55;;
84763;SDS011;74992;51.072;6.088;2024-02-21T12:30:19;6.38;;;1.80;;
84763;SDS011;74992;51.072;6.088;2024-02-21T12:33:21;8.65;;;2.10;;
84763;SDS011;74992;51.072;6.088;2024-02-21T12:36:22;4.15;;;2.50;;
84763;SDS011;74992;51.072;6.088;2024-02-21T12:39:24;3.25;;;1.60;;
84763;SDS011;74992;51.072;6.088;2024-02-21T12:42:27;3.33;;;1.50;;
84763;SDS011;74992;51.072;6.088;2024-02-21T12:45:29;4.38;;;1.55;;
84763;SDS011;74992;51.072;6.088;2024-02-21T12:48:31;7.00;;;1.90;;
84763;SDS011;74992;51.072;6.088;2024-02-21T12:51:33;3.95;;;1.80;;
84763;SDS011;74992;51.072;6.088;2024-02-21T12:54:37;4.95;;;1.77;;
84763;SDS011;74992;51.072;6.088;2024-02-21T12:57:39;3.72;;;1.65;;
84763;SDS011;74992;51.072;6.088;2024-02-21T13:00:42;3.95;;;1.73;;
84763;SDS011;74992;51.072;6.088;2024-02-21T13:03:44;4.28;;;2.28;;
84763;SDS011;74992;51.072;6.088;2024-02-21T13:06:46;3.30;;;1.60;;
84763;SDS011;74992;51.072;6.088;2024-02-21T13:09:48;2.88;;;1.63;;
84763;SDS011;74992;51.072;6.088;2024-02-21T13:12:51;4.65;;;1.70;;
84763;SDS011;74992;51.072;6.088;2024-02-21T13:15:52;3.58;;;1.75;;
84763;SDS011;74992;51.072;6.088;2024-02-21T13:18:54;4.70;;;2.38;;
84763;SDS011;74992;51.072;6.088;2024-02-21T13:21:55;5.38;;;2.10;;
84763;SDS011;74992;51.072;6.088;2024-02-21T13:24:57;3.63;;;1.65;;
84763;SDS011;74992;51.072;6.088;2024-02-21T13:27:58;6.50;;;1.92;;
84763;SDS011;74992;51.072;6.088;2024-02-21T13:31:00;3.65;;;1.73;;
84763;SDS011;74992;51.072;6.088;2024-02-21T13:34:02;2.13;;;1.10;;
84763;SDS011;74992;51.072;6.088;2024-02-21T13:37:03;3.13;;;1.30;;
84763;SDS011;74992;51.072;6.088;2024-02-21T13:40:07;3.35;;;1.50;;
84763;SDS011;74992;51.072;6.088;2024-02-21T13:43:10;2.80;;;1.55;;
84763;SDS011;74992;51.072;6.088;2024-02-21T13:46:14;4.10;;;1.77;;
84763;SDS011;74992;51.072;6.088;2024-02-21T13:49:16;2.40;;;1.55;;
84763;SDS011;74992;51.072;6.088;2024-02-21T13:52:17;8.98;;;2.83;;
84763;SDS011;74992;51.072;6.088;2024-02-21T13:55:20;3.28;;;1.77;;
84763;SDS011;74992;51.072;6.088;2024-02-21T13:58:26;3.05;;;1.60;;
84763;SDS011;74992;51.072;6.088;2024-02-21T14:01:27;3.70;;;1.50;;
84763;SDS011;74992;51.072;6.088;2024-02-21T14:04:29;3.92;;;1.90;;
84763;SDS011;74992;51.072;6.088;2024-02-21T14:07:32;2.03;;;1.00;;
84763;SDS011;74992;51.072;6.088;2024-02-21T14:10:34;2.80;;;1.40;;
84763;SDS011;74992;51.072;6.088;2024-02-21T14:13:38;5.72;;;1.50;;
84763;SDS011;74992;51.072;6.088;2024-02-21T14:16:40;5.75;;;2.03;;
84763;SDS011;74992;51.072;6.088;2024-02-21T14:19:42;3.70;;;1.58;;
84763;SDS011;74992;51.072;6.088;2024-02-21T14:22:44;3.22;;;1.52;;
84763;SDS011;74992;51.072;6.088;2024-02-21T14:25:46;4.03;;;1.50;;
84763;SDS011;74992;51.072;6.088;2024-02-21T14:28:48;7.53;;;2.72;;
84763;SDS011;74992;51.072;6.088;2024-02-21T14:31:52;3.17;;;1.83;;
84763;SDS011;74992;51.072;6.088;2024-02-21T14:34:54;4.85;;;1.65;;
84763;SDS011;74992;51.072;6.088;2024-02-21T14:37:55;3.33;;;1.73;;
84763;SDS011;74992;51.072;6.088;2024-02-21T14:40:57;3.88;;;1.73;;
84763;SDS011;74992;51.072;6.088;2024-02-21T14:43:59;11.68;;;1.58;;
84763;SDS011;74992;51.072;6.088;2024-02-21T14:47:01;3.65;;;1.55;;
84763;SDS011;74992;51.072;6.088;2024-02-21T14:50:03;5.43;;;1.63;;
84763;SDS011;74992;51.072;6.088;2024-02-21T14:53:05;4.38;;;1.40;;
84763;SDS011;74992;51.072;6.088;2024-02-21T14:56:14;3.38;;;1.70;;
84763;SDS011;74992;51.072;6.088;2024-02-21T14:59:16;5.00;;;1.98;;
84763;SDS011;74992;51.072;6.088;2024-02-21T15:02:19;4.05;;;1.25;;
84763;SDS011;74992;51.072;6.088;2024-02-21T15:05:21;4.15;;;1.58;;
84763;SDS011;74992;51.072;6.088;2024-02-21T15:08:23;1.95;;;1.15;;
84763;SDS011;74992;51.072;6.088;2024-02-21T15:11:26;2.55;;;1.20;;
84763;SDS011;74992;51.072;6.088;2024-02-21T15:14:27;5.10;;;1.73;;
84763;SDS011;74992;51.072;6.088;2024-02-21T15:17:32;3.10;;;2.03;;
84763;SDS011;74992;51.072;6.088;2024-02-21T15:20:33;5.88;;;1.88;;
84763;SDS011;74992;51.072;6.088;2024-02-21T15:23:35;6.03;;;2.28;;
84763;SDS011;74992;51.072;6.088;2024-02-21T15:26:36;4.78;;;2.40;;
84763;SDS011;74992;51.072;6.088;2024-02-21T15:29:38;4.28;;;1.75;;
84763;SDS011;74992;51.072;6.088;2024-02-21T15:32:40;3.40;;;1.98;;
84763;SDS011;74992;51.072;6.088;2024-02-21T15:35:43;4.38;;;2.33;;
84763;SDS011;74992;51.072;6.088;2024-02-21T15:38:45;3.03;;;2.42;;
84763;SDS011;74992;51.072;6.088;2024-02-21T15:41:47;3.15;;;1.80;;
84763;SDS011;74992;51.072;6.088;2024-02-21T15:44:49;3.72;;;1.70;;
84763;SDS011;74992;51.072;6.088;2024-02-21T15:47:50;3.78;;;1.40;;
84763;SDS011;74992;51.072;6.088;2024-02-21T15:50:54;4.88;;;1.83;;
84763;SDS011;74992;51.072;6.088;2024-02-21T15:53:56;3.83;;;1.40;;
84763;SDS011;74992;51.072;6.088;2024-02-21T15:56:57;7.57;;;1.75;;
84763;SDS011;74992;51.072;6.088;2024-02-21T15:59:59;2.25;;;1.10;;
84763;SDS011;74992;51.072;6.088;2024-02-21T16:03:00;3.55;;;1.50;;
84763;SDS011;74992;51.072;6.088;2024-02-21T16:06:03;3.30;;;1.52;;
84763;SDS011;74992;51.072;6.088;2024-02-21T16:09:05;2.70;;;1.45;;
84763;SDS011;74992;51.072;6.088;2024-02-21T16:12:09;3.50;;;1.42;;
84763;SDS011;74992;51.072;6.088;2024-02-21T16:15:12;4.40;;;1.75;;
84763;SDS011;74992;51.072;6.088;2024-02-21T16:18:15;2.75;;;1.45;;
84763;SDS011;74992;51.072;6.088;2024-02-21T16:21:20;1.60;;;1.02;;
84763;SDS011;74992;51.072;6.088;2024-02-21T16:24:22;3.30;;;1.35;;
84763;SDS011;74992;51.072;6.088;2024-02-21T16:27:23;3.15;;;1.45;;
84763;SDS011;74992;51.072;6.088;2024-02-21T16:30:25;2.63;;;1.15;;
84763;SDS011;74992;51.072;6.088;2024-02-21T16:33:26;2.80;;;1.30;;
84763;SDS011;74992;51.072;6.088;2024-02-21T16:36:29;2.00;;;1.30;;
84763;SDS011;74992;51.072;6.088;2024-02-21T16:39:31;2.38;;;1.48;;
84763;SDS011;74992;51.072;6.088;2024-02-21T16:42:32;7.00;;;2.83;;
84763;SDS011;74992;51.072;6.088;2024-02-21T16:45:34;2.83;;;1.38;;
84763;SDS011;74992;51.072;6.088;2024-02-21T16:48:37;2.35;;;1.27;;
84763;SDS011;74992;51.072;6.088;2024-02-21T16:51:39;3.28;;;1.50;;
84763;SDS011;74992;51.072;6.088;2024-02-21T16:54:40;2.40;;;1.15;;
84763;SDS011;74992;51.072;6.088;2024-02-21T16:57:42;3.42;;;1.73;;
84763;SDS011;74992;51.072;6.088;2024-02-21T17:00:44;7.60;;;3.45;;
84763;SDS011;74992;51.072;6.088;2024-02-21T17:03:46;7.20;;;2.33;;
84763;SDS011;74992;51.072;6.088;2024-02-21T17:06:48;10.85;;;3.13;;
84763;SDS011;74992;51.072;6.088;2024-02-21T17:09:53;14.48;;;2.42;;
84763;SDS011;74992;51.072;6.088;2024-02-21T17:12:55;3.38;;;1.75;;
84763;SDS011;74992;51.072;6.088;2024-02-21T17:15:56;3.08;;;1.52;;
84763;SDS011;74992;51.072;6.088;2024-02-21T17:18:58;2.72;;;1.70;;
84763;SDS011;74992;51.072;6.088;2024-02-21T17:21:59;2.50;;;1.48;;
84763;SDS011;74992;51.072;6.088;2024-02-21T17:25:01;3.60;;;2.20;;
84763;SDS011;74992;51.072;6.088;2024-02-21T17:28:03;3.50;;;1.90;;
84763;SDS011;74992;51.072;6.088;2024-02-21T17:31:04;3.75;;;1.70;;
84763;SDS011;74992;51.072;6.088;2024-02-21T17:34:06;4.10;;;2.22;;
84763;SDS011;74992;51.072;6.088;2024-02-21T17:37:07;8.50;;;1.70;;
84763;SDS011;74992;51.072;6.088;2024-02-21T17:40:09;2.38;;;1.50;;
84763;SDS011;74992;51.072;6.088;2024-02-21T17:43:11;5.78;;;3.22;;
84763;SDS011;74992;51.072;6.088;2024-02-21T17:46:12;4.32;;;2.20;;
84763;SDS011;74992;51.072;6.088;2024-02-21T17:49:14;2.85;;;1.33;;
84763;SDS011;74992;51.072;6.088;2024-02-21T17:52:16;2.63;;;1.58;;
84763;SDS011;74992;51.072;6.088;2024-02-21T17:55:17;4.53;;;2.75;;
84763;SDS011;74992;51.072;6.088;2024-02-21T17:58:19;3.28;;;1.75;;
84763;SDS011;74992;51.072;6.088;2024-02-21T18:01:20;3.25;;;1.77;;
84763;SDS011;74992;51.072;6.088;2024-02-21T18:04:22;2.28;;;1.15;;
84763;SDS011;74992;51.072;6.088;2024-02-21T18:07:24;8.80;;;2.17;;
84763;SDS011;74992;51.072;6.088;2024-02-21T18:10:26;2.20;;;1.10;;
84763;SDS011;74992;51.072;6.088;2024-02-21T18:13:31;5.95;;;2.72;;
84763;SDS011;74992;51.072;6.088;2024-02-21T18:16:32;3.83;;;2.38;;
84763;SDS011;74992;51.072;6.088;2024-02-21T18:19:34;2.67;;;1.38;;
84763;SDS011;74992;51.072;6.088;2024-02-21T18:22:39;3.42;;;1.73;;
84763;SDS011;74992;51.072;6.088;2024-02-21T18:25:40;2.92;;;1.50;;
84763;SDS011;74992;51.072;6.088;2024-02-21T18:28:42;2.78;;;1.20;;
84763;SDS011;74992;51.072;6.088;2024-02-21T18:31:44;2.53;;;1.92;;
84763;SDS011;74992;51.072;6.088;2024-02-21T18:34:45;3.50;;;1.95;;
84763;SDS011;74992;51.072;6.088;2024-02-21T18:37:47;3.13;;;2.00;;
84763;SDS011;74992;51.072;6.088;2024-02-21T18:40:49;4.30;;;1.70;;
84763;SDS011;74992;51.072;6.088;2024-02-21T18:43:50;3.78;;;1.45;;
84763;SDS011;74992;51.072;6.088;2024-02-21T18:46:52;3.53;;;1.73;;